SNA weather

John Wayne Airport-Orange County Airport
Santa Ana, California, United States

Public forecast

Using degrees Fahrenheit for public forecast. Weather courtesy of forecast.io.

Current aviation weather report (METAR) for John Wayne Airport-Orange County Airport

Retrieved 2019/12/12 07:53 UTC (8 minutes ago):

KSNA 120753Z AUTO 00000KT 10SM CLR 14/09 A3018 RMK AO2 SLP219 T01390094 402060100

Aviation forecast (TAF) for John Wayne Airport-Orange County Airport

Retrieved 2019/12/12 06:22 UTC (2 hours ago):

TAF KSNA 120520Z 1206/1306 VRB04KT P6SM BKN250